Time;durP1;ratioP1;P1;durP2;ratioP2;P2;SDS_P1;SDS_P2;PMS_P1;PMS_P2;Temp;Humidity;BMP_temperature;BMP_pressure;BME280_temperature;BME280_humidity;BME280_pressure;Samples;Min_cycle;Max_cycle;Signal;HPM_P1;HPM_P2
2023/03/20 00:02:24;;;;;;;20.20;1.95;;;;;;;20.20;63.00;99465.31;7313082;19;129204;-41
2023/03/20 00:04:49;;;;;;;;;;;;;;;20.18;63.78;99464.66;7313102;19;128833;-42
2023/03/20 00:07:15;;;;;;;42.90;3.17;;;;;;;20.17;62.36;99460.38;7309961;19;129105;-41
2023/03/20 00:09:41;;;;;;;58.13;3.80;;;;;;;20.10;62.58;99448.78;7312913;19;129582;-40
2023/03/20 00:12:13;;;;;;;37.63;3.28;;;;;;;20.19;63.62;99464.50;7311989;19;130213;-41
2023/03/20 00:14:39;;;;;;;38.08;2.95;;;;;;;20.16;63.43;99464.75;7313316;19;128939;-41
2023/03/20 00:17:10;;;;;;;54.43;4.03;;;;;;;20.22;63.80;99473.84;7310078;19;129230;-42
2023/03/20 00:19:36;;;;;;;65.75;4.07;;;;;;;20.21;62.10;99466.97;7310738;19;129811;-41
2023/03/20 00:22:02;;;;;;;42.97;3.40;;;;;;;20.19;62.22;99467.13;7312430;19;129917;-41
2023/03/20 00:24:27;;;;;;;32.85;2.58;;;;;;;20.21;61.70;99472.19;7311839;19;129091;-42
2023/03/20 00:26:53;;;;;;;41.40;3.10;;;;;;;20.22;63.05;99474.69;7309158;19;128984;-41
2023/03/20 00:29:22;;;;;;;100.00;6.03;;;;;;;20.23;63.83;99467.69;7310414;19;129478;-41
2023/03/20 00:31:48;;;;;;;19.17;2.65;;;;;;;20.22;62.51;99474.69;7312991;19;129677;-41
2023/03/20 00:34:16;;;;;;;45.75;3.83;;;;;;;20.16;63.75;99453.50;7309878;19;129478;-42
2023/03/20 00:36:42;;;;;;;33.63;2.95;;;;;;;20.13;62.79;99456.34;7311486;19;129277;-40
2023/03/20 00:39:08;;;;;;;69.73;4.70;;;;;;;20.23;61.62;99470.28;7309896;19;129006;-41
2023/03/20 00:41:36;;;;;;;41.05;3.35;;;;;;;20.24;62.95;99461.50;7312863;19;129374;-41
2023/03/20 00:44:16;;;;;;;57.05;3.67;;;;;;;20.26;63.48;99468.22;7311053;19;129409;-42
2023/03/20 00:46:45;;;;;;;43.22;3.40;;;;;;;20.29;62.76;99464.53;7310264;19;129868;-41
2023/03/20 00:49:10;;;;;;;45.85;3.50;;;;;;;20.31;62.23;99462.59;7313245;19;130457;-42
2023/03/20 00:51:37;;;;;;;35.13;2.90;;;;;;;20.32;62.88;99464.25;7312197;19;129188;-40
2023/03/20 00:54:11;;;;;;;46.00;3.70;;;;;;;20.33;63.08;99461.50;7312293;19;129361;-41
2023/03/20 00:56:41;;;;;;;38.50;3.20;;;;;;;20.33;63.38;99460.66;7308872;19;129048;-41
2023/03/20 00:59:15;;;;;;;33.15;3.20;;;;;;;20.33;63.52;99461.50;7311083;19;129306;-41
2023/03/20 01:01:40;;;;;;;54.15;4.00;;;;;;;20.36;62.28;99463.03;7317962;19;129145;-41
2023/03/20 01:04:12;;;;;;;50.88;3.60;;;;;;;20.37;63.06;99462.06;7318593;19;129303;-41
2023/03/20 01:06:38;;;;;;;35.13;3.22;;;;;;;20.37;62.72;99462.06;7316376;19;129174;-41
2023/03/20 01:09:04;;;;;;;31.50;3.10;;;;;;;20.38;62.95;99466.31;7317994;19;129611;-42
2023/03/20 01:11:30;;;;;;;38.55;3.03;;;;;;;20.40;62.46;99461.78;7316346;19;129093;-42
2023/03/20 01:13:56;;;;;;;48.40;3.50;;;;;;;20.40;62.41;99460.00;7317751;19;129015;-41
2023/03/20 01:16:23;;;;;;;32.97;2.85;;;;;;;20.43;62.68;99464.13;7316639;19;128944;-41
2023/03/20 01:18:49;;;;;;;47.50;3.38;;;;;;;20.40;62.92;99462.63;7315957;19;129162;-42
2023/03/20 01:21:16;;;;;;;41.07;3.23;;;;;;;20.42;62.89;99457.25;7317659;19;129605;-41
2023/03/20 01:23:41;;;;;;;37.70;3.25;;;;;;;20.42;62.23;99465.09;7317971;19;128862;-42
2023/03/20 01:26:21;;;;;;;32.53;2.72;;;;;;;20.31;63.31;99442.53;7316742;19;129143;-41
2023/03/20 01:28:48;;;;;;;40.97;3.05;;;;;;;20.32;62.75;99438.13;7317012;19;129336;-41
2023/03/20 01:31:15;;;;;;;29.48;3.05;;;;;;;20.43;63.13;99458.91;7316484;19;129134;-42
2023/03/20 01:33:41;;;;;;;52.33;3.55;;;;;;;20.43;63.01;99458.91;7316831;19;129263;-41
2023/03/20 01:36:10;;;;;;;45.10;3.58;;;;;;;20.42;62.84;99452.03;7315978;19;129471;-41
2023/03/20 01:38:37;;;;;;;33.30;3.38;;;;;;;20.42;62.71;99455.47;7316833;19;129677;-42
2023/03/20 01:41:06;;;;;;;36.53;3.05;;;;;;;20.43;62.86;99461.50;7316792;19;129347;-41
2023/03/20 01:43:33;;;;;;;48.03;3.50;;;;;;;20.41;61.90;99459.03;7317595;19;130780;-42
2023/03/20 01:46:13;;;;;;;;;;;;;;;20.48;63.39;99454.09;7316324;19;128930;-42
2023/03/20 01:48:56;;;;;;;36.08;2.65;;;;;;;20.44;62.77;99460.56;7316656;19;130030;-42
2023/03/20 01:51:28;;;;;;;39.13;3.28;;;;;;;20.43;62.58;99456.28;7315287;19;132601;-41
2023/03/20 01:53:57;;;;;;;35.63;3.33;;;;;;;20.42;62.20;99452.03;7317084;19;128879;-41
2023/03/20 01:56:23;;;;;;;26.73;2.65;;;;;;;20.43;62.77;99461.50;7313578;19;129384;-42
2023/03/20 01:59:02;;;;;;;51.22;3.78;;;;;;;20.41;62.80;99453.81;7315762;19;129114;-42
2023/03/20 02:01:29;;;;;;;52.05;3.67;;;;;;;20.30;62.12;99440.88;7316412;19;130292;-41
2023/03/20 02:03:55;;;;;;;48.47;3.53;;;;;;;20.42;62.25;99454.66;7317436;19;129059;-42
2023/03/20 02:06:23;;;;;;;53.15;3.95;;;;;;;20.42;62.58;99459.88;7314183;19;129819;-41
2023/03/20 02:08:51;;;;;;;39.60;3.20;;;;;;;20.41;62.75;99453.00;7316558;19;129343;-41
2023/03/20 02:11:21;;;;;;;61.30;4.07;;;;;;;20.43;62.77;99458.91;7314420;19;129696;-41
2023/03/20 02:13:47;;;;;;;42.35;3.45;;;;;;;20.43;62.22;99451.06;7316219;19;129829;-42
2023/03/20 02:16:14;;;;;;;20.40;2.13;;;;;;;20.41;62.36;99453.00;7315170;19;128989;-40
2023/03/20 02:18:46;;;;;;;45.97;3.33;;;;;;;20.30;62.51;99437.44;7314710;19;129017;-42
2023/03/20 02:21:39;;;;;;;42.20;3.05;;;;;;;20.44;63.08;99452.72;7315741;19;129898;-42
2023/03/20 02:24:38;;;;;;;45.03;3.55;;;;;;;20.44;62.79;99452.72;7314253;19;128978;-41
2023/03/20 02:27:22;;;;;;;36.00;2.95;;;;;;;20.43;62.83;99461.50;7312922;19;129447;-42
2023/03/20 02:30:15;;;;;;;50.05;3.55;;;;;;;20.40;62.75;99452.19;7315341;19;129245;-42
2023/03/20 02:33:12;;;;;;;23.52;2.40;;;;;;;20.36;62.52;99450.78;7315033;19;129683;-40
2023/03/20 02:35:52;;;;;;;36.13;2.72;;;;;;;20.44;62.94;99457.97;7314207;19;128872;-41
2023/03/20 02:38:51;;;;;;;57.50;4.18;;;;;;;20.44;63.16;99461.38;7314824;19;129225;-42
2023/03/20 02:41:29;;;;;;;;;;;;;;;20.46;62.88;99459.47;7315209;19;129217;-41
2023/03/20 02:44:18;;;;;;;35.47;2.97;;;;;;;20.33;62.47;99439.78;7316316;19;129532;-41
2023/03/20 02:47:02;;;;;;;13.10;1.92;;;;;;;20.43;62.68;99457.13;7312760;19;129237;-41
2023/03/20 02:49:53;;;;;;;38.83;3.03;;;;;;;20.43;62.60;99461.50;7316002;19;129196;-41
2023/03/20 02:52:37;;;;;;;59.40;4.07;;;;;;;20.42;62.97;99463.31;7313614;19;129205;-41
2023/03/20 02:55:30;;;;;;;94.90;6.00;;;;;;;20.40;62.95;99461.78;7314789;19;129999;-41
2023/03/20 02:58:18;;;;;;;62.40;4.45;;;;;;;20.42;62.56;99472.94;7315020;19;129182;-41
2023/03/20 03:00:57;;;;;;;31.60;2.72;;;;;;;20.41;62.57;99461.66;7314806;19;130146;-41
2023/03/20 03:03:33;;;;;;;45.17;3.30;;;;;;;20.41;62.28;99461.66;7314545;19;129197;-41
2023/03/20 03:06:05;;;;;;;45.88;3.28;;;;;;;20.35;62.24;99446.53;7312101;19;129463;-41
2023/03/20 03:08:37;;;;;;;55.10;3.78;;;;;;;20.44;62.23;99458.75;7314072;19;129083;-42
2023/03/20 03:11:05;;;;;;;45.20;3.28;;;;;;;20.43;62.71;99461.50;7315244;19;128995;-41
2023/03/20 03:13:34;;;;;;;38.55;3.50;;;;;;;20.42;62.05;99459.88;7314711;19;129828;-41
2023/03/20 03:16:07;;;;;;;19.30;2.08;;;;;;;20.39;62.66;99458.38;7312412;19;129204;-41
2023/03/20 03:18:35;;;;;;;19.77;2.42;;;;;;;20.40;61.80;99459.16;7313561;19;129138;-41
2023/03/20 03:21:03;;;;;;;80.43;5.20;;;;;;;20.40;61.54;99459.16;7312296;19;129059;-41
2023/03/20 03:23:44;;;;;;;21.20;2.30;;;;;;;20.29;62.86;99434.03;7312891;19;129893;-42
2023/03/20 03:26:17;;;;;;;46.17;3.33;;;;;;;20.40;62.22;99456.56;7311190;19;129291;-41
2023/03/20 03:28:51;;;;;;;27.50;2.58;;;;;;;20.38;62.22;99453.25;7313764;19;128982;-41
2023/03/20 03:31:18;;;;;;;28.50;2.55;;;;;;;20.38;62.29;99453.25;7312512;19;128889;-41
2023/03/20 03:33:45;;;;;;;;;;;;;;;20.42;62.40;99449.44;7313645;19;129861;-41
2023/03/20 03:36:32;;;;;;;26.20;2.60;;;;;;;20.30;61.97;99432.22;7311434;19;129395;-41
2023/03/20 03:38:57;;;;;;;34.75;2.85;;;;;;;20.42;61.76;99454.66;7312839;19;129340;-41
2023/03/20 03:41:36;;;;;;;30.52;2.38;;;;;;;20.40;62.77;99454.78;7313490;19;129761;-41
2023/03/20 03:44:13;;;;;;;42.10;3.38;;;;;;;20.41;62.31;99447.78;7313777;19;129392;-42
2023/03/20 03:46:50;;;;;;;32.93;2.67;;;;;;;20.40;62.57;99451.34;7311516;19;129210;-42
2023/03/20 03:49:20;;;;;;;42.78;3.20;;;;;;;20.36;62.13;99449.97;7313905;19;129174;-41
2023/03/20 03:51:49;;;;;;;53.28;3.33;;;;;;;20.37;62.05;99452.44;7314005;19;129340;-41
2023/03/20 03:54:57;;;;;;;51.13;3.55;;;;;;;20.38;62.52;99453.25;7314127;19;129269;-41
2023/03/20 03:57:52;;;;;;;81.07;4.78;;;;;;;20.40;62.64;99440.91;7311627;19;129783;-42
2023/03/20 04:00:22;;;;;;;46.85;3.28;;;;;;;20.39;61.79;99450.53;7310195;19;129224;-41
2023/03/20 04:02:51;;;;;;;49.08;3.53;;;;;;;20.37;61.60;99447.22;7312290;19;130231;-41
2023/03/20 04:05:19;;;;;;;32.83;2.75;;;;;;;20.38;62.27;99458.47;7312542;19;129469;-41
2023/03/20 04:07:46;;;;;;;47.38;3.20;;;;;;;20.30;61.63;99440.06;7312210;19;129734;-41
2023/03/20 04:10:12;;;;;;;42.45;2.88;;;;;;;20.36;61.67;99449.97;7312587;19;129129;-41
2023/03/20 04:12:40;;;;;;;52.60;3.60;;;;;;;20.39;61.83;99454.94;7310804;19;129031;-41
2023/03/20 04:15:06;;;;;;;25.63;2.38;;;;;;;20.38;62.17;99454.09;7311809;19;129558;-41
2023/03/20 04:17:32;;;;;;;33.43;2.67;;;;;;;20.38;62.26;99453.25;7311844;19;129249;-41
2023/03/20 04:19:58;;;;;;;39.53;2.90;;;;;;;20.37;61.56;99456.84;7310633;19;128925;-41
2023/03/20 04:22:23;;;;;;;61.10;3.85;;;;;;;20.37;61.79;99456.84;7311806;19;129208;-40
2023/03/20 04:24:50;;;;;;;33.22;2.63;;;;;;;20.37;61.68;99462.91;7312194;19;129266;-40
2023/03/20 04:27:16;;;;;;;51.83;3.87;;;;;;;20.37;61.70;99467.28;7309626;19;129392;-41
2023/03/20 04:29:42;;;;;;;36.73;2.80;;;;;;;20.37;62.28;99467.28;7312862;19;129267;-41
2023/03/20 04:32:07;;;;;;;47.80;3.05;;;;;;;20.34;61.66;99462.34;7312082;19;129602;-41
2023/03/20 04:34:33;;;;;;;30.83;2.55;;;;;;;20.23;60.70;99458.03;7310743;19;129457;-41
2023/03/20 04:37:00;;;;;;;41.88;3.22;;;;;;;20.22;62.58;99468.63;7307646;19;129544;-41
2023/03/20 04:39:26;;;;;;;48.08;3.08;;;;;;;20.18;61.73;99462.03;7309679;19;129084;-42
2023/03/20 04:41:51;;;;;;;43.53;3.03;;;;;;;20.20;60.93;99465.31;7311637;19;129713;-40
2023/03/20 04:44:16;;;;;;;56.70;4.22;;;;;;;20.41;60.07;99466.06;7312200;19;129065;-41
2023/03/20 04:46:42;;;;;;;48.08;3.30;;;;;;;20.75;58.16;99459.47;7309415;19;129870;-41
2023/03/20 04:49:07;;;;;;;53.53;3.53;;;;;;;20.99;57.97;99459.09;7312283;19;129269;-41
2023/03/20 04:51:32;;;;;;;53.33;3.70;;;;;;;21.20;56.75;99463.22;7311525;19;128977;-42
2023/03/20 04:53:58;;;;;;;36.22;2.65;;;;;;;21.33;56.32;99462.91;7312070;19;129429;-41
2023/03/20 04:56:23;;;;;;;56.30;3.67;;;;;;;21.44;56.05;99457.50;7306922;19;129229;-40
2023/03/20 04:58:49;;;;;;;45.70;3.17;;;;;;;21.54;55.86;99471.38;7311989;19;129223;-40
2023/03/20 05:01:14;;;;;;;26.90;2.28;;;;;;;21.68;55.26;99474.34;7311087;19;129171;-42
2023/03/20 05:03:39;;;;;;;42.40;3.05;;;;;;;21.77;55.73;99478.75;7310319;19;129631;-41
2023/03/20 05:06:05;;;;;;;41.28;3.03;;;;;;;21.86;54.70;99464.00;7308633;19;129676;-41
2023/03/20 05:08:31;;;;;;;71.40;4.30;;;;;;;22.10;54.51;99479.19;7308874;19;129190;-42
2023/03/20 05:10:56;;;;;;;54.88;3.78;;;;;;;22.13;53.88;99477.06;7306308;19;129472;-41
2023/03/20 05:13:22;;;;;;;31.25;2.60;;;;;;;22.25;54.16;99477.69;7310223;19;129616;-41
2023/03/20 05:15:47;;;;;;;37.70;2.83;;;;;;;22.38;53.11;99483.44;7308929;19;129593;-41
2023/03/20 05:18:13;;;;;;;35.95;2.85;;;;;;;22.33;53.80;99475.19;7310082;19;129225;-41
2023/03/20 05:20:38;;;;;;;61.30;4.07;;;;;;;22.48;53.06;99492.88;7308268;19;128961;-42
2023/03/20 05:23:03;;;;;;;40.70;2.85;;;;;;;22.57;52.89;99488.56;7310158;19;129321;-41
2023/03/20 05:25:29;;;;;;;39.10;3.00;;;;;;;22.69;52.44;99497.88;7308911;19;130605;-41
2023/03/20 05:27:54;;;;;;;74.32;5.20;;;;;;;22.67;52.25;99486.72;7307162;19;129156;-41
2023/03/20 05:30:20;;;;;;;35.80;3.28;;;;;;;22.83;52.59;99502.59;7310272;19;129808;-41
2023/03/20 05:32:48;;;;;;;28.05;2.08;;;;;;;22.86;52.51;99505.72;7310655;19;129141;-42
2023/03/20 05:35:14;;;;;;;63.75;4.05;;;;;;;22.91;52.34;99500.84;7309559;19;130954;-42
2023/03/20 05:37:39;;;;;;;21.73;2.75;;;;;;;22.84;52.45;99504.25;7311482;19;128809;-42
2023/03/20 05:40:06;;;;;;;42.00;3.03;;;;;;;22.77;52.42;99511.06;7310267;19;129007;-42
2023/03/20 05:42:31;;;;;;;35.97;2.92;;;;;;;22.66;52.79;99509.47;7311171;19;129010;-42
2023/03/20 05:44:56;;;;;;;55.22;3.53;;;;;;;22.55;52.82;99511.47;7309824;19;130337;-42
2023/03/20 05:47:22;;;;;;;36.10;2.57;;;;;;;22.42;53.36;99505.72;7317319;19;129400;-41
2023/03/20 05:49:47;;;;;;;35.13;3.05;;;;;;;22.28;54.02;99506.25;7316959;19;129130;-42
2023/03/20 05:52:13;;;;;;;41.17;3.33;;;;;;;22.10;54.06;99502.75;7315115;19;130224;-42
2023/03/20 05:54:38;;;;;;;59.57;3.70;;;;;;;22.09;54.55;99524.66;7317008;19;129507;-42
2023/03/20 05:57:03;;;;;;;50.65;3.35;;;;;;;21.96;54.43;99525.78;7315385;19;129466;-41
2023/03/20 05:59:29;;;;;;;32.40;2.67;;;;;;;21.87;54.34;99520.59;7316334;19;129496;-41
2023/03/20 06:01:54;;;;;;;53.90;3.58;;;;;;;21.85;54.68;99528.59;7316179;19;129330;-41
2023/03/20 06:04:20;;;;;;;97.77;6.07;;;;;;;21.78;55.16;99527.50;7316257;19;129668;-41
2023/03/20 06:06:45;;;;;;;35.17;2.67;;;;;;;21.70;55.52;99535.22;7312978;19;129201;-41
2023/03/20 06:09:10;;;;;;;31.52;2.55;;;;;;;21.65;56.02;99526.16;7316717;19;129412;-41
2023/03/20 06:11:36;;;;;;;48.55;3.35;;;;;;;21.54;55.96;99529.75;7315976;19;129436;-41
2023/03/20 06:14:01;;;;;;;84.90;5.40;;;;;;;21.44;56.24;99530.72;7311629;19;133450;-41
2023/03/20 06:16:26;;;;;;;38.78;3.17;;;;;;;21.23;56.53;99520.44;7314692;19;129146;-41
2023/03/20 06:18:52;;;;;;;37.95;2.75;;;;;;;21.24;56.69;99543.00;7315864;19;129866;-41
2023/03/20 06:21:17;;;;;;;47.58;3.35;;;;;;;21.16;56.57;99537.63;7310166;19;129089;-41
2023/03/20 06:23:43;;;;;;;25.67;2.13;;;;;;;21.08;56.80;99537.50;7315378;19;129145;-41
2023/03/20 06:26:08;;;;;;;34.90;2.67;;;;;;;21.07;57.60;99542.88;7314336;19;129063;-41
2023/03/20 06:28:33;;;;;;;65.38;4.57;;;;;;;21.11;56.92;99546.84;7310011;19;129730;-41
2023/03/20 06:30:59;;;;;;;39.00;2.67;;;;;;;21.21;57.18;99543.28;7313949;19;129213;-41
2023/03/20 06:33:24;;;;;;;35.80;2.40;;;;;;;21.26;56.90;99543.69;7315559;19;129281;-41
2023/03/20 06:35:50;;;;;;;53.30;3.60;;;;;;;21.25;56.78;99549.91;7313533;19;129102;-41
2023/03/20 06:38:15;;;;;;;42.78;2.97;;;;;;;21.22;56.63;99539.69;7314732;19;129053;-41
2023/03/20 06:40:41;;;;;;;72.75;4.40;;;;;;;21.15;56.61;99528.16;7312717;19;129437;-41
2023/03/20 06:43:07;;;;;;;47.30;3.35;;;;;;;21.33;56.42;99542.19;7315843;19;129775;-41
2023/03/20 06:45:32;;;;;;;10.38;1.63;;;;;;;21.33;56.22;99552.63;7313749;19;128985;-41
2023/03/20 06:47:58;;;;;;;81.35;5.03;;;;;;;21.36;56.46;99554.13;7310353;19;129383;-40
2023/03/20 06:50:24;;;;;;;61.63;4.03;;;;;;;21.27;56.35;99553.16;7312716;19;129268;-41
2023/03/20 06:52:50;;;;;;;64.73;4.30;;;;;;;21.22;56.45;99549.34;7312901;19;129183;-42
2023/03/20 06:55:15;;;;;;;68.25;4.65;;;;;;;21.20;57.11;99549.47;7309265;19;128897;-42
2023/03/20 06:57:41;;;;;;;40.92;2.90;;;;;;;21.08;57.28;99549.75;7311644;19;129447;-42
2023/03/20 07:00:08;;;;;;;54.13;3.57;;;;;;;21.00;57.78;99545.22;7312489;19;129516;-42
2023/03/20 07:02:33;;;;;;;36.55;2.80;;;;;;;20.98;57.67;99547.13;7314976;19;129216;-42
2023/03/20 07:04:58;;;;;;;43.00;3.13;;;;;;;21.01;57.61;99538.16;7313214;19;128994;-42
2023/03/20 07:07:24;;;;;;;52.78;3.22;;;;;;;21.11;57.41;99537.22;7313537;19;129226;-42
2023/03/20 07:09:49;;;;;;;44.35;3.10;;;;;;;21.12;57.29;99522.38;7311843;19;129381;-41
2023/03/20 07:12:18;;;;;;;49.00;3.38;;;;;;;21.35;57.02;99540.25;7311753;19;129711;-42
2023/03/20 07:14:44;;;;;;;9.95;1.65;;;;;;;21.52;56.73;99542.13;7313016;19;129391;-42
2023/03/20 07:17:10;;;;;;;47.35;3.17;;;;;;;21.65;56.14;99537.44;7310397;19;128957;-42
2023/03/20 07:19:35;;;;;;;56.57;3.70;;;;;;;21.84;55.22;99537.41;7313380;19;128996;-42
2023/03/20 07:22:03;;;;;;;38.42;2.83;;;;;;;22.00;54.95;99542.03;7314439;19;129371;-42
2023/03/20 07:24:30;;;;;;;76.50;4.57;;;;;;;22.10;54.94;99544.63;7312665;19;128864;-42
2023/03/20 07:26:56;;;;;;;53.95;3.47;;;;;;;22.22;54.33;99540.84;7311680;19;129427;-41
2023/03/20 07:29:21;;;;;;;45.97;2.97;;;;;;;22.20;54.43;99548.00;7312636;19;129631;-42
2023/03/20 07:31:46;;;;;;;37.90;2.65;;;;;;;22.18;53.98;99550.78;7313932;19;129444;-41
2023/03/20 07:34:12;;;;;;;17.10;2.05;;;;;;;22.11;54.86;99552.34;7313156;19;129680;-42
2023/03/20 07:36:37;;;;;;;55.15;3.53;;;;;;;22.01;54.56;99558.56;7313435;19;129415;-41
2023/03/20 07:39:04;;;;;;;41.85;2.70;;;;;;;21.95;55.02;99549.50;7312485;19;129318;-42
2023/03/20 07:41:30;;;;;;;33.77;2.70;;;;;;;21.85;55.25;99565.22;7314493;19;129112;-42
2023/03/20 07:43:55;;;;;;;35.00;2.67;;;;;;;21.77;55.38;99567.72;7313111;19;129228;-42
2023/03/20 07:46:20;;;;;;;45.45;2.95;;;;;;;21.69;55.90;99567.59;7312214;19;129407;-41
2023/03/20 07:48:46;;;;;;;57.80;3.60;;;;;;;21.59;56.13;99571.19;7313169;19;129424;-42
2023/03/20 07:51:11;;;;;;;53.55;3.35;;;;;;;21.49;56.37;99568.59;7313465;19;130282;-41
2023/03/20 07:53:36;;;;;;;35.03;2.28;;;;;;;21.39;56.29;99567.75;7313175;19;128906;-42
2023/03/20 07:56:02;;;;;;;59.43;3.60;;;;;;;21.30;56.53;99567.78;7312432;19;130485;-42
2023/03/20 07:58:27;;;;;;;37.78;2.58;;;;;;;21.21;56.74;99564.19;7314942;19;129026;-40
2023/03/20 08:00:52;;;;;;;37.50;2.85;;;;;;;21.12;57.42;99566.81;7311300;19;130789;-42
2023/03/20 08:03:18;;;;;;;39.20;2.93;;;;;;;21.06;57.36;99570.78;7312736;19;129084;-42
2023/03/20 08:05:43;;;;;;;48.42;3.03;;;;;;;21.04;57.23;99567.47;7314021;19;130960;-42
2023/03/20 08:08:08;;;;;;;27.02;2.30;;;;;;;21.09;57.55;99574.94;7311583;19;129426;-41
2023/03/20 08:10:34;;;;;;;32.13;2.53;;;;;;;21.16;57.24;99576.00;7311582;19;129244;-41
2023/03/20 08:12:59;;;;;;;61.00;3.75;;;;;;;21.12;57.30;99549.31;7311832;19;129999;-41
2023/03/20 08:15:25;;;;;;;46.58;3.13;;;;;;;21.44;56.83;99575.19;7310575;19;129145;-41
2023/03/20 08:17:50;;;;;;;45.70;2.95;;;;;;;21.63;56.40;99570.78;7312825;19;129563;-41
2023/03/20 08:20:16;;;;;;;30.83;2.70;;;;;;;21.79;55.59;99576.28;7311132;19;129705;-41
2023/03/20 08:22:43;;;;;;;55.60;3.63;;;;;;;21.91;55.35;99569.88;7312985;19;129279;-40
2023/03/20 08:25:09;;;;;;;48.00;2.97;;;;;;;22.14;55.10;99577.41;7308380;19;130072;-41
2023/03/20 08:27:35;;;;;;;47.10;3.07;;;;;;;22.15;54.82;99573.84;7312605;19;129170;-41
2023/03/20 08:30:01;;;;;;;45.83;3.27;;;;;;;22.10;54.57;99565.59;7307426;19;129227;-41
2023/03/20 08:32:27;;;;;;;67.70;3.87;;;;;;;22.10;54.35;99566.38;7310860;19;128990;-41
2023/03/20 08:34:54;;;;;;;37.67;2.67;;;;;;;22.06;55.07;99567.66;7310781;19;129084;-41
2023/03/20 08:37:20;;;;;;;34.05;2.28;;;;;;;21.98;55.05;99578.84;7308874;19;130032;-40
2023/03/20 08:39:46;;;;;;;45.50;2.78;;;;;;;21.92;54.73;99571.56;7310600;19;129880;-41
2023/03/20 08:42:12;;;;;;;52.13;3.33;;;;;;;21.82;55.47;99570.75;7311055;19;128991;-40
2023/03/20 08:44:37;;;;;;;46.17;3.15;;;;;;;21.73;56.08;99571.56;7311736;19;128931;-41
2023/03/20 08:47:04;;;;;;;39.90;2.60;;;;;;;21.61;55.73;99567.47;7308354;19;129204;-40
2023/03/20 08:49:29;;;;;;;;;;;;;;;21.50;55.94;99572.84;7311216;19;129188;-41
2023/03/20 08:51:54;;;;;;;60.53;3.55;;;;;;;21.45;56.54;99574.25;7309522;19;128925;-41
2023/03/20 08:54:20;;;;;;;79.50;4.90;;;;;;;21.36;56.67;99580.28;7308738;19;131237;-42
2023/03/20 08:56:45;;;;;;;42.03;2.75;;;;;;;21.31;57.02;99580.72;7308244;19;129459;-41
2023/03/20 08:59:11;;;;;;;19.15;1.55;;;;;;;21.20;57.12;99578.25;7310783;19;129451;-40
2023/03/20 09:01:37;;;;;;;100.72;5.95;;;;;;;21.13;57.42;99582.34;7306351;19;129383;-41
2023/03/20 09:04:03;;;;;;;34.80;2.43;;;;;;;21.07;57.70;99585.53;7312831;19;131116;-42
2023/03/20 09:06:29;;;;;;;15.67;1.57;;;;;;;21.05;57.99;99590.06;7309416;19;129322;-42
2023/03/20 09:08:56;;;;;;;49.17;3.08;;;;;;;20.98;57.86;99588.94;7309864;19;129189;-42
2023/03/20 09:11:22;;;;;;;45.50;2.73;;;;;;;20.94;57.77;99584.91;7311367;19;129106;-42
2023/03/20 09:13:47;;;;;;;31.10;2.03;;;;;;;20.97;58.04;99579.47;7309984;19;130107;-42
2023/03/20 09:16:12;;;;;;;39.03;2.63;;;;;;;20.96;57.96;99574.34;7309420;19;129515;-42
2023/03/20 09:18:38;;;;;;;82.03;4.97;;;;;;;21.14;57.64;99583.19;7311028;19;129321;-42
2023/03/20 09:21:03;;;;;;;48.60;2.90;;;;;;;21.32;57.11;99592.81;7314367;19;129864;-41
2023/03/20 09:23:29;;;;;;;10.50;1.50;;;;;;;21.48;56.56;99587.88;7318797;19;129444;-41
2023/03/20 09:25:54;;;;;;;39.33;2.67;;;;;;;21.66;55.85;99587.97;7315431;19;129528;-43
2023/03/20 09:28:19;;;;;;;45.00;2.80;;;;;;;21.82;56.05;99583.00;7318023;19;129737;-41
2023/03/20 09:30:45;;;;;;;54.37;3.73;;;;;;;21.85;55.74;99578.31;7318286;19;130643;-40
2023/03/20 09:33:11;;;;;;;52.80;3.50;;;;;;;21.96;55.33;99595.66;7318512;19;129719;-41
2023/03/20 09:35:36;;;;;;;30.63;2.03;;;;;;;21.93;55.53;99594.13;7316116;19;129866;-41
2023/03/20 09:38:01;;;;;;;63.17;3.75;;;;;;;21.88;55.64;99598.16;7318333;19;129692;-43
2023/03/20 09:40:35;;;;;;;29.17;2.00;;;;;;;21.84;55.64;99595.00;7316621;19;130317;-40
2023/03/20 09:43:25;;;;;;;28.27;2.17;;;;;;;21.76;55.77;99596.63;7315763;19;129156;-42
2023/03/20 09:45:58;;;;;;;60.40;3.90;;;;;;;21.65;56.06;99605.44;7315600;19;129974;-43
2023/03/20 09:48:48;;;;;;;32.80;2.40;;;;;;;21.59;56.10;99610.41;7316869;19;129596;-41
2023/03/20 09:51:49;;;;;;;80.03;4.72;;;;;;;21.36;56.60;99594.19;7316121;19;129901;-40
2023/03/20 09:54:24;;;;;;;57.22;3.70;;;;;;;21.38;57.13;99618.44;7316636;19;129743;-42
2023/03/20 09:56:51;;;;;;;23.63;1.88;;;;;;;21.30;57.28;99615.69;7314851;19;129332;-41
2023/03/20 09:59:19;;;;;;;36.90;2.70;;;;;;;21.22;56.92;99610.28;7317118;19;129369;-42
2023/03/20 10:01:51;;;;;;;51.90;3.35;;;;;;;21.16;57.73;99616.06;7313253;19;129247;-42
2023/03/20 10:04:17;;;;;;;82.57;4.85;;;;;;;21.10;57.84;99614.00;7313913;19;129078;-42
2023/03/20 10:06:43;;;;;;;33.57;2.37;;;;;;;21.05;58.15;99616.19;7313156;19;130455;-40
2023/03/20 10:09:16;;;;;;;31.80;2.13;;;;;;;21.10;57.54;99619.22;7314313;19;131091;-40
2023/03/20 10:11:54;;;;;;;31.30;2.45;;;;;;;21.09;57.47;99595.84;7314195;19;129674;-42
2023/03/20 10:14:41;;;;;;;90.85;5.25;;;;;;;21.30;56.91;99613.06;7312224;19;129290;-42
2023/03/20 10:17:44;;;;;;;51.00;3.20;;;;;;;21.54;56.38;99623.09;7313513;19;130067;-42
2023/03/20 10:20:12;;;;;;;42.60;2.80;;;;;;;21.74;56.32;99609.88;7313141;19;129599;-43
2023/03/20 10:22:43;;;;;;;68.28;4.05;;;;;;;21.89;55.95;99618.97;7315158;19;128987;-41
2023/03/20 10:25:12;;;;;;;42.22;2.72;;;;;;;22.03;54.91;99619.47;7314441;19;129550;-41
2023/03/20 10:27:51;;;;;;;65.75;4.28;;;;;;;22.12;55.07;99614.22;7315607;19;129585;-41
2023/03/20 10:30:39;;;;;;;33.75;2.55;;;;;;;22.10;54.52;99610.09;7315827;19;129641;-42
2023/03/20 10:33:16;;;;;;;;;;;;;;;22.06;55.06;99604.31;7315378;19;128941;-42
2023/03/20 10:36:03;;;;;;;36.92;2.58;;;;;;;22.03;55.62;99614.25;7314344;19;129089;-41
2023/03/20 10:38:34;;;;;;;27.27;1.97;;;;;;;21.84;54.96;99595.00;7316297;19;129050;-42
2023/03/20 10:41:01;;;;;;;55.80;3.55;;;;;;;21.79;55.47;99599.84;7311515;19;129315;-43
2023/03/20 10:43:34;;;;;;;51.47;3.10;;;;;;;21.78;55.66;99613.88;7315009;19;128974;-41
2023/03/20 10:46:17;;;;;;;48.20;3.03;;;;;;;21.70;55.57;99621.56;7313035;19;129214;-42
2023/03/20 10:48:48;;;;;;;34.88;2.45;;;;;;;21.61;56.24;99616.34;7314449;19;129964;-42
2023/03/20 10:51:16;;;;;;;34.65;2.47;;;;;;;21.54;56.51;99618.69;7314366;19;129709;-41
2023/03/20 10:53:48;;;;;;;13.60;1.30;;;;;;;21.47;56.63;99620.19;7315428;19;129561;-43
2023/03/20 10:56:27;;;;;;;65.65;3.97;;;;;;;21.35;56.58;99618.72;7311752;19;129602;-43
2023/03/20 10:59:02;;;;;;;34.78;2.40;;;;;;;21.27;56.84;99620.34;7314040;19;129085;-41
2023/03/20 11:01:27;;;;;;;33.45;2.25;;;;;;;21.16;57.68;99602.16;7312563;19;129231;-41
2023/03/20 11:03:54;;;;;;;51.58;3.33;;;;;;;21.12;57.47;99609.44;7314113;19;128820;-42
2023/03/20 11:06:24;;;;;;;;;;;;;;;21.09;58.10;99612.34;7312229;19;129272;-41
2023/03/20 11:08:51;;;;;;;56.25;3.58;;;;;;;21.05;57.85;99625.81;7314181;19;129023;-40
2023/03/20 11:11:22;;;;;;;68.38;3.97;;;;;;;21.02;58.41;99621.72;7313983;19;130437;-42
2023/03/20 11:13:48;;;;;;;35.72;2.38;;;;;;;20.99;58.46;99616.72;7314610;19;129984;-40
2023/03/20 11:16:22;;;;;;;56.03;3.60;;;;;;;21.06;57.90;99623.06;7311397;19;130286;-43
2023/03/20 11:18:49;;;;;;;33.78;2.38;;;;;;;21.17;57.62;99620.31;7313575;19;129214;-40
2023/03/20 11:21:24;;;;;;;63.78;3.75;;;;;;;21.35;57.12;99623.94;7311544;19;129531;-41
2023/03/20 11:23:51;;;;;;;37.85;2.35;;;;;;;21.52;56.57;99625.00;7312871;19;130100;-43
2023/03/20 11:26:26;;;;;;;45.35;3.08;;;;;;;21.71;56.45;99625.84;7311313;19;129109;-41
2023/03/20 11:28:56;;;;;;;18.80;1.52;;;;;;;21.89;55.49;99618.13;7313307;19;132045;-41
2023/03/20 11:31:28;;;;;;;36.08;2.33;;;;;;;21.94;55.12;99605.44;7310945;19;131293;-42